createdAt,value
2019-03-23T00:01:04.792Z,21.37
2019-03-23T00:02:10.204Z,21.03
2019-03-23T00:03:15.158Z,21.00
2019-03-23T00:04:22.727Z,20.53
2019-03-23T00:05:27.644Z,19.43
2019-03-23T00:06:33.106Z,19.87
2019-03-23T00:07:40.327Z,20.50
2019-03-23T00:08:45.225Z,18.33
2019-03-23T00:09:50.216Z,20.07
2019-03-23T00:10:55.189Z,17.23
2019-03-23T00:12:00.243Z,20.43
2019-03-23T00:13:05.179Z,19.83
2019-03-23T00:14:10.251Z,19.50
2019-03-23T00:15:15.695Z,17.43
2019-03-23T00:16:20.654Z,20.33
2019-03-23T00:17:25.761Z,17.67
2019-03-23T00:18:30.964Z,21.87
2019-03-23T00:19:35.840Z,22.27
2019-03-23T00:20:40.774Z,19.87
2019-03-23T00:21:45.798Z,20.93
2019-03-23T00:22:50.856Z,22.50
2019-03-23T00:23:55.853Z,25.13
2019-03-23T00:25:00.778Z,22.73
2019-03-23T00:26:05.799Z,26.07
2019-03-23T00:27:11.132Z,22.97
2019-03-23T00:28:16.008Z,25.23
2019-03-23T00:29:20.885Z,27.00
2019-03-23T00:30:25.819Z,23.83
2019-03-23T00:31:30.753Z,25.17
2019-03-23T00:32:35.746Z,24.10
2019-03-23T00:33:40.821Z,26.47
2019-03-23T00:34:45.904Z,22.87
2019-03-23T00:35:50.893Z,28.07
2019-03-23T00:36:55.883Z,22.03
2019-03-23T00:38:00.795Z,28.47
2019-03-23T00:39:07.463Z,25.33
2019-03-23T00:40:12.508Z,28.97
2019-03-23T00:41:17.470Z,27.67
2019-03-23T00:42:22.613Z,28.17
2019-03-23T00:43:27.588Z,27.87
2019-03-23T00:44:32.669Z,28.43
2019-03-23T00:45:37.678Z,31.40
2019-03-23T00:46:42.549Z,30.00
2019-03-23T00:47:47.652Z,28.50
2019-03-23T00:48:52.818Z,33.50
2019-03-23T00:49:57.724Z,28.37
2019-03-23T00:51:02.666Z,33.27
2019-03-23T00:52:07.784Z,30.40
2019-03-23T00:53:13.964Z,38.33
2019-03-23T00:54:18.989Z,36.20
2019-03-23T00:55:24.147Z,32.27
2019-03-23T00:56:29.046Z,36.73
2019-03-23T00:57:33.927Z,42.43
2019-03-23T00:58:38.850Z,40.70
2019-03-23T00:59:43.745Z,42.37
2019-03-23T01:00:48.723Z,41.00
2019-03-23T01:01:53.807Z,41.03
2019-03-23T01:02:58.777Z,40.80
2019-03-23T01:04:04.020Z,38.57
2019-03-23T01:05:10.068Z,42.70
2019-03-23T01:06:15.090Z,43.13
2019-03-23T01:07:20.025Z,42.40
2019-03-23T01:08:24.976Z,45.27
2019-03-23T01:09:30.104Z,45.63
2019-03-23T01:10:34.979Z,41.97
2019-03-23T01:11:40.113Z,45.90
2019-03-23T01:12:45.092Z,41.27
2019-03-23T01:13:50.066Z,43.33
2019-03-23T01:14:55.193Z,43.57
2019-03-23T01:16:00.089Z,46.60
2019-03-23T01:17:05.004Z,46.47
2019-03-23T01:18:10.055Z,40.90
2019-03-23T01:19:15.070Z,42.17
2019-03-23T01:20:20.199Z,44.83
2019-03-23T01:21:25.238Z,47.97
2019-03-23T01:22:32.580Z,51.30
2019-03-23T01:23:37.460Z,49.13
2019-03-23T01:24:42.420Z,48.90
2019-03-23T01:25:47.370Z,50.40
2019-03-23T01:26:52.275Z,54.07
2019-03-23T01:27:57.357Z,51.70
2019-03-23T01:29:02.231Z,53.83
2019-03-23T01:30:08.352Z,54.57
2019-03-23T01:31:13.471Z,58.90
2019-03-23T01:32:18.335Z,54.57
2019-03-23T01:33:23.270Z,52.50
2019-03-23T01:34:28.168Z,52.90
2019-03-23T01:35:33.023Z,53.27
2019-03-23T01:36:37.874Z,61.93
2019-03-23T01:37:42.875Z,63.97
2019-03-23T01:38:48.020Z,61.70
2019-03-23T01:39:52.943Z,57.63
2019-03-23T01:41:00.899Z,54.77
2019-03-23T01:42:05.888Z,61.50
2019-03-23T01:43:10.780Z,61.00
2019-03-23T01:44:15.695Z,68.00
2019-03-23T01:45:20.684Z,62.30
2019-03-23T01:46:25.594Z,62.50
2019-03-23T01:47:30.581Z,67.17
2019-03-23T01:48:35.701Z,66.77
2019-03-23T01:49:42.608Z,74.53
2019-03-23T01:50:47.468Z,67.23
2019-03-23T01:51:52.642Z,70.17
2019-03-23T01:52:57.823Z,73.60
2019-03-23T01:54:02.678Z,75.73
2019-03-23T01:55:07.960Z,86.67
2019-03-23T01:56:12.965Z,79.30
2019-03-23T01:57:17.822Z,83.37
2019-03-23T01:58:22.770Z,85.13
2019-03-23T01:59:27.744Z,91.77
2019-03-23T02:00:32.626Z,77.13
2019-03-23T02:01:37.596Z,86.00
2019-03-23T02:02:42.483Z,87.77
2019-03-23T02:03:47.414Z,96.10
2019-03-23T02:04:52.321Z,88.27
2019-03-23T02:05:57.240Z,97.17
2019-03-23T02:07:02.112Z,97.53
2019-03-23T02:08:07.038Z,94.43
2019-03-23T02:09:12.190Z,89.00
2019-03-23T02:10:17.033Z,105.20
2019-03-23T02:11:22.021Z,96.50
2019-03-23T02:12:26.875Z,99.47
2019-03-23T02:13:31.730Z,93.77
2019-03-23T02:14:36.651Z,99.83
2019-03-23T02:15:41.674Z,94.60
2019-03-23T02:16:46.576Z,94.97
2019-03-23T02:17:51.437Z,101.90
2019-03-23T02:18:56.455Z,98.87
2019-03-23T02:20:01.473Z,96.10
2019-03-23T02:21:06.456Z,98.60
2019-03-23T02:22:11.537Z,103.53
2019-03-23T02:23:16.614Z,114.00
2019-03-23T02:24:21.547Z,102.40
2019-03-23T02:25:26.369Z,98.60
2019-03-23T02:26:31.280Z,101.17
2019-03-23T02:27:36.158Z,91.23
2019-03-23T02:28:41.015Z,97.73
2019-03-23T02:29:45.908Z,93.00
2019-03-23T02:30:50.853Z,100.60
2019-03-23T02:31:55.746Z,94.30
2019-03-23T02:33:00.872Z,93.67
2019-03-23T02:34:05.885Z,83.50
2019-03-23T02:35:11.109Z,85.83
2019-03-23T02:36:16.001Z,85.17
2019-03-23T02:37:27.547Z,97.37
2019-03-23T02:38:27.455Z,83.90
2019-03-23T02:39:32.404Z,98.23
2019-03-23T02:40:37.357Z,85.30
2019-03-23T02:41:42.682Z,92.40
2019-03-23T02:42:47.664Z,85.30
2019-03-23T02:43:52.537Z,86.40
2019-03-23T02:44:57.416Z,93.07
2019-03-23T02:46:02.268Z,87.20
2019-03-23T02:47:07.153Z,83.67
2019-03-23T02:48:14.187Z,87.60
2019-03-23T02:49:19.157Z,89.93
2019-03-23T02:50:24.209Z,97.40
2019-03-23T02:51:29.203Z,93.20
2019-03-23T02:52:34.121Z,87.50
2019-03-23T02:53:38.993Z,93.10
2019-03-23T02:54:44.007Z,87.43
2019-03-23T02:55:48.920Z,88.30
2019-03-23T02:56:53.766Z,89.53
2019-03-23T02:57:58.717Z,95.53
2019-03-23T02:59:03.674Z,101.83
2019-03-23T03:00:13.143Z,92.43
2019-03-23T03:01:18.003Z,95.70
2019-03-23T03:02:22.898Z,100.57
2019-03-23T03:03:27.785Z,97.47
2019-03-23T03:04:32.758Z,104.07
2019-03-23T03:05:37.729Z,103.40
2019-03-23T03:06:42.578Z,101.83
2019-03-23T03:07:47.510Z,94.30
2019-03-23T03:08:52.395Z,94.57
2019-03-23T03:09:57.334Z,108.63
2019-03-23T03:11:02.293Z,102.87
2019-03-23T03:12:07.250Z,99.53
2019-03-23T03:13:12.249Z,98.93
2019-03-23T03:14:17.199Z,97.60
2019-03-23T03:15:22.096Z,98.43
2019-03-23T03:16:26.953Z,112.63
2019-03-23T03:17:31.820Z,95.93
2019-03-23T03:18:38.047Z,107.00
2019-03-23T03:19:42.902Z,102.07
2019-03-23T03:20:47.853Z,94.40
2019-03-23T03:21:52.708Z,101.57
2019-03-23T03:22:57.621Z,103.20
2019-03-23T03:24:02.511Z,106.13
2019-03-23T03:25:07.508Z,109.80
2019-03-23T03:26:12.751Z,106.03
2019-03-23T03:27:17.798Z,104.10
2019-03-23T03:28:22.642Z,105.53
2019-03-23T03:29:27.533Z,101.77
2019-03-23T03:30:32.411Z,94.07
2019-03-23T03:31:37.287Z,91.33
2019-03-23T03:32:42.257Z,102.83
2019-03-23T03:33:47.119Z,95.67
2019-03-23T03:34:52.003Z,95.17
2019-03-23T03:35:57.056Z,87.00
2019-03-23T03:37:03.910Z,97.47
2019-03-23T03:38:08.926Z,100.57
2019-03-23T03:39:14.153Z,98.30
2019-03-23T03:40:19.089Z,100.80
2019-03-23T03:41:23.981Z,100.10
2019-03-23T03:42:28.961Z,102.03
2019-03-23T03:43:33.901Z,116.57
2019-03-23T03:44:38.850Z,105.47
2019-03-23T03:45:43.813Z,113.03
2019-03-23T03:46:48.700Z,103.67
2019-03-23T03:47:53.558Z,112.23
2019-03-23T03:49:11.907Z,113.03
2019-03-23T03:50:05.532Z,108.60
2019-03-23T03:51:10.432Z,114.67
2019-03-23T03:52:15.396Z,112.97
2019-03-23T03:53:20.226Z,114.20
2019-03-23T03:54:25.203Z,107.33
2019-03-23T03:55:30.184Z,108.53
2019-03-23T03:56:35.206Z,119.40
2019-03-23T03:57:40.138Z,107.43
2019-03-23T03:58:45.134Z,109.83
2019-03-23T03:59:50.090Z,105.33
2019-03-23T04:00:54.944Z,106.43
2019-03-23T04:01:59.886Z,121.57
2019-03-23T04:03:05.005Z,105.03
2019-03-23T04:04:10.358Z,116.80
2019-03-23T04:05:15.239Z,121.87
2019-03-23T04:06:20.125Z,115.60
2019-03-23T04:07:24.974Z,120.13
2019-03-23T04:08:29.899Z,112.33
2019-03-23T04:09:34.739Z,119.57
2019-03-23T04:10:39.568Z,114.50
2019-03-23T04:11:44.471Z,119.93
2019-03-23T04:12:49.376Z,113.03
2019-03-23T04:13:54.228Z,129.30
2019-03-23T04:14:59.138Z,113.87
2019-03-23T04:16:03.996Z,107.53
2019-03-23T04:17:08.838Z,112.07
2019-03-23T04:18:14.225Z,111.93
2019-03-23T04:19:19.177Z,106.77
2019-03-23T04:20:24.139Z,107.40
2019-03-23T04:21:28.984Z,113.43
2019-03-23T04:22:34.107Z,107.37
2019-03-23T04:23:39.016Z,112.23
2019-03-23T04:24:43.865Z,101.23
2019-03-23T04:25:48.781Z,101.67
2019-03-23T04:26:53.693Z,95.73
2019-03-23T04:27:58.503Z,100.63
2019-03-23T04:29:04.613Z,105.80
2019-03-23T04:30:12.195Z,113.43
2019-03-23T04:31:17.093Z,121.03
2019-03-23T04:32:21.945Z,119.30
2019-03-23T04:33:26.778Z,116.20
2019-03-23T04:34:31.692Z,115.67
2019-03-23T04:35:36.656Z,114.27
2019-03-23T04:36:41.564Z,118.73
2019-03-23T04:37:46.578Z,108.37
2019-03-23T04:38:51.422Z,115.07
2019-03-23T04:39:56.289Z,115.70
2019-03-23T04:41:01.157Z,117.93
2019-03-23T04:42:06.033Z,111.73
2019-03-23T04:43:10.977Z,121.63
2019-03-23T04:44:16.052Z,106.17
2019-03-23T04:45:20.959Z,114.60
2019-03-23T04:46:25.826Z,113.30
2019-03-23T04:47:30.807Z,116.47
2019-03-23T04:48:35.805Z,109.60
2019-03-23T04:49:40.779Z,107.43
2019-03-23T04:50:45.685Z,109.40
2019-03-23T04:51:50.528Z,117.40
2019-03-23T04:52:55.420Z,103.10
2019-03-23T04:54:00.284Z,105.70
2019-03-23T04:55:06.561Z,116.90
2019-03-23T04:56:12.073Z,112.70
2019-03-23T04:57:16.959Z,114.07
2019-03-23T04:58:21.796Z,112.03
2019-03-23T04:59:26.663Z,108.43
2019-03-23T05:00:31.542Z,114.20
2019-03-23T05:01:36.648Z,109.70
2019-03-23T05:02:41.621Z,97.73
2019-03-23T05:03:46.699Z,114.20
2019-03-23T05:04:51.644Z,100.80
2019-03-23T05:05:56.579Z,108.90
2019-03-23T05:07:01.560Z,104.80
2019-03-23T05:08:06.460Z,112.83
2019-03-23T05:09:11.440Z,107.27
2019-03-23T05:10:16.573Z,104.40
2019-03-23T05:11:21.429Z,95.97
2019-03-23T05:12:26.250Z,105.27
2019-03-23T05:13:31.161Z,107.83
2019-03-23T05:14:36.219Z,115.20
2019-03-23T05:15:41.160Z,106.43
2019-03-23T05:16:46.160Z,114.17
2019-03-23T05:17:51.014Z,101.87
2019-03-23T05:18:55.900Z,102.73
2019-03-23T05:20:00.770Z,107.03
2019-03-23T05:21:05.756Z,103.70
2019-03-23T05:22:11.113Z,101.43
2019-03-23T05:23:16.046Z,112.37
2019-03-23T05:24:20.904Z,110.10
2019-03-23T05:25:26.662Z,108.00
2019-03-23T05:26:31.574Z,112.73
2019-03-23T05:27:36.416Z,95.93
2019-03-23T05:28:41.325Z,99.37
2019-03-23T05:29:46.219Z,106.33
2019-03-23T05:30:51.203Z,111.93
2019-03-23T05:31:56.166Z,97.97
2019-03-23T05:33:01.176Z,109.70
2019-03-23T05:34:05.997Z,109.63
2019-03-23T05:35:10.965Z,114.73
2019-03-23T05:36:16.291Z,110.87
2019-03-23T05:37:21.239Z,106.00
2019-03-23T05:38:26.125Z,107.53
2019-03-23T05:39:31.052Z,105.53
2019-03-23T05:40:35.997Z,114.50
2019-03-23T05:41:40.927Z,100.73
2019-03-23T05:42:45.816Z,102.97
2019-03-23T05:43:50.797Z,99.30
2019-03-23T05:44:55.672Z,107.23
2019-03-23T05:46:00.531Z,107.23
2019-03-23T05:47:05.896Z,93.90
2019-03-23T05:48:11.434Z,109.27
2019-03-23T05:49:16.298Z,101.43
2019-03-23T05:50:21.213Z,99.80
2019-03-23T05:51:26.109Z,103.37
2019-03-23T05:52:31.045Z,117.30
2019-03-23T05:53:35.956Z,103.43
2019-03-23T05:54:40.969Z,99.90
2019-03-23T05:55:45.915Z,107.10
2019-03-23T05:56:50.821Z,100.13
2019-03-23T05:57:55.724Z,108.83
2019-03-23T05:59:00.621Z,102.90
2019-03-23T06:00:06.155Z,100.93
2019-03-23T06:01:11.089Z,106.37
2019-03-23T06:02:16.060Z,110.57
2019-03-23T06:03:20.975Z,103.00
2019-03-23T06:04:25.959Z,97.77
2019-03-23T06:05:30.884Z,106.23
2019-03-23T06:06:35.836Z,96.40
2019-03-23T06:07:40.748Z,109.10
2019-03-23T06:08:54.607Z,89.17
2019-03-23T06:09:52.300Z,98.73
2019-03-23T06:10:57.234Z,104.17
2019-03-23T06:12:02.185Z,95.33
2019-03-23T06:13:09.895Z,106.63
2019-03-23T06:14:16.567Z,103.07
2019-03-23T06:15:21.447Z,104.10
2019-03-23T06:16:26.363Z,100.07
2019-03-23T06:17:31.250Z,100.53
2019-03-23T06:18:36.212Z,103.50
2019-03-23T06:19:41.086Z,98.83
2019-03-23T06:20:46.046Z,108.43
2019-03-23T06:21:51.081Z,94.97
2019-03-23T06:22:56.165Z,102.40
2019-03-23T06:24:01.073Z,99.83
2019-03-23T06:25:08.007Z,109.70
2019-03-23T06:26:16.411Z,99.73
2019-03-23T06:27:21.253Z,99.83
2019-03-23T06:28:26.116Z,104.60
2019-03-23T06:29:31.074Z,103.17
2019-03-23T06:30:35.921Z,102.13
2019-03-23T06:31:40.802Z,105.33
2019-03-23T06:32:45.669Z,104.10
2019-03-23T06:33:50.612Z,103.20
2019-03-23T06:34:55.520Z,109.90
2019-03-23T06:36:00.408Z,115.53
2019-03-23T06:37:05.327Z,116.23
2019-03-23T06:38:10.278Z,105.93
2019-03-23T06:39:15.199Z,113.17
2019-03-23T06:40:20.045Z,110.93
2019-03-23T06:41:24.990Z,108.37
2019-03-23T06:42:29.873Z,115.17
2019-03-23T06:43:34.748Z,109.80
2019-03-23T06:44:39.785Z,105.63
2019-03-23T06:45:44.687Z,109.77
2019-03-23T06:46:49.549Z,110.17
2019-03-23T06:47:54.451Z,111.07
2019-03-23T06:48:59.303Z,112.03
2019-03-23T06:50:04.819Z,117.63
2019-03-23T06:51:09.784Z,110.97
2019-03-23T06:52:14.965Z,134.13
2019-03-23T06:53:19.904Z,110.97
2019-03-23T06:54:24.874Z,107.00
2019-03-23T06:55:29.924Z,109.10
2019-03-23T06:56:34.988Z,108.43
2019-03-23T06:57:39.953Z,102.70
2019-03-23T06:58:44.903Z,119.43
2019-03-23T06:59:49.811Z,117.17
2019-03-23T07:00:54.767Z,112.20
2019-03-23T07:01:59.648Z,108.30
2019-03-23T07:03:04.580Z,109.57
2019-03-23T07:04:09.421Z,113.20
2019-03-23T07:05:14.476Z,106.13
2019-03-23T07:06:19.373Z,113.03
2019-03-23T07:07:24.298Z,104.50
2019-03-23T07:08:32.154Z,119.00
2019-03-23T07:09:35.928Z,99.13
2019-03-23T07:10:42.343Z,105.53
2019-03-23T07:11:47.215Z,118.63
2019-03-23T07:12:52.173Z,111.43
2019-03-23T07:13:57.201Z,105.03
2019-03-23T07:15:02.197Z,111.57
2019-03-23T07:16:07.181Z,107.70
2019-03-23T07:17:12.126Z,107.33
2019-03-23T07:18:17.136Z,100.50
2019-03-23T07:19:22.015Z,97.43
2019-03-23T07:20:26.978Z,98.07
2019-03-23T07:21:31.866Z,102.97
2019-03-23T07:22:36.773Z,95.20
2019-03-23T07:23:41.845Z,94.60
2019-03-23T07:24:46.789Z,95.53
2019-03-23T07:25:51.840Z,104.37
2019-03-23T07:26:57.290Z,99.40
2019-03-23T07:28:02.328Z,87.90
2019-03-23T07:29:07.681Z,93.47
2019-03-23T07:30:14.643Z,93.07
2019-03-23T07:31:19.837Z,92.60
2019-03-23T07:32:24.944Z,82.03
2019-03-23T07:33:29.997Z,90.53
2019-03-23T07:34:34.967Z,90.37
2019-03-23T07:35:39.914Z,86.70
2019-03-23T07:36:44.870Z,86.20
2019-03-23T07:37:49.931Z,81.70
2019-03-23T07:38:54.923Z,83.10
2019-03-23T07:39:59.902Z,81.50
2019-03-23T07:41:04.861Z,83.33
2019-03-23T07:42:10.176Z,78.40
2019-03-23T07:43:15.186Z,83.20
2019-03-23T07:44:20.424Z,80.70
2019-03-23T07:45:25.661Z,78.70
2019-03-23T07:46:30.598Z,78.73
2019-03-23T07:47:35.543Z,76.60
2019-03-23T07:48:40.733Z,69.17
2019-03-23T07:49:45.817Z,83.30
2019-03-23T07:50:50.769Z,79.60
2019-03-23T07:51:55.751Z,81.47
2019-03-23T07:53:00.673Z,82.60
2019-03-23T07:54:08.969Z,99.03
2019-03-23T07:57:02.035Z,84.63
2019-03-23T07:58:07.363Z,84.57
2019-03-23T07:59:12.822Z,84.37
2019-03-23T08:00:19.404Z,81.80
2019-03-23T08:02:43.808Z,81.40
2019-03-23T08:06:28.060Z,79.60
2019-03-23T08:07:33.268Z,79.57
2019-03-23T08:08:38.931Z,75.37
2019-03-23T08:09:44.208Z,84.70
2019-03-23T08:10:49.338Z,79.07
2019-03-23T08:11:54.551Z,81.67
2019-03-23T08:12:59.750Z,80.23
2019-03-23T08:14:04.995Z,79.27
2019-03-23T08:15:10.962Z,89.95
2019-03-23T08:16:17.925Z,77.37
2019-03-23T08:17:23.150Z,79.93
2019-03-23T08:18:28.194Z,79.87
2019-03-23T08:19:33.469Z,78.10
2019-03-23T08:20:38.852Z,74.87
2019-03-23T08:21:43.907Z,73.67
2019-03-23T08:22:49.029Z,85.00
2019-03-23T08:23:54.185Z,73.83
2019-03-23T08:24:59.294Z,74.10
2019-03-23T08:26:04.884Z,77.57
2019-03-23T08:27:10.324Z,72.13
2019-03-23T08:28:15.687Z,68.45
2019-03-23T08:29:20.684Z,76.90
2019-03-23T08:30:25.659Z,72.55
2019-03-23T08:31:30.744Z,74.15
2019-03-23T08:32:35.964Z,74.58
2019-03-23T08:33:41.025Z,79.75
2019-03-23T08:34:46.543Z,75.83
2019-03-23T08:35:51.695Z,70.10
2019-03-23T08:36:56.667Z,70.22
2019-03-23T08:38:01.828Z,70.35
2019-03-23T08:39:08.421Z,64.53
2019-03-23T08:40:13.892Z,70.37
2019-03-23T08:41:18.876Z,67.10
2019-03-23T08:42:24.028Z,67.22
2019-03-23T08:43:29.070Z,69.55
2019-03-23T08:44:34.292Z,74.95
2019-03-23T08:45:39.362Z,72.42
2019-03-23T08:46:46.321Z,68.75
2019-03-23T08:47:51.518Z,66.20
2019-03-23T08:48:56.609Z,78.30
2019-03-23T08:50:01.703Z,61.58
2019-03-23T08:51:06.696Z,61.65
2019-03-23T08:52:13.968Z,68.80
2019-03-23T08:53:18.990Z,61.98
2019-03-23T08:54:24.341Z,63.55
2019-03-23T08:55:29.462Z,64.55
2019-03-23T08:56:34.626Z,65.35
2019-03-23T08:57:41.446Z,60.98
2019-03-23T08:58:44.122Z,66.30
2019-03-23T08:59:49.129Z,64.42
2019-03-23T09:00:54.169Z,58.10
2019-03-23T09:01:59.093Z,63.52
2019-03-23T09:03:04.086Z,60.28
2019-03-23T09:04:09.096Z,59.88
2019-03-23T09:05:14.278Z,62.78
2019-03-23T09:06:19.486Z,59.42
2019-03-23T09:07:24.472Z,54.75
2019-03-23T09:08:29.450Z,62.60
2019-03-23T09:09:34.492Z,64.82
2019-03-23T09:10:39.505Z,57.03
2019-03-23T09:11:44.590Z,56.98
2019-03-23T09:12:49.722Z,65.08
2019-03-23T09:13:54.742Z,58.05
2019-03-23T09:14:59.741Z,61.50
2019-03-23T09:16:05.261Z,67.75
2019-03-23T09:17:10.451Z,61.20
2019-03-23T09:18:17.700Z,57.30
2019-03-23T09:19:23.020Z,64.97
2019-03-23T09:20:29.520Z,61.05
2019-03-23T09:21:34.716Z,58.75
2019-03-23T09:22:39.727Z,62.65
2019-03-23T09:23:44.718Z,56.48
2019-03-23T09:24:49.850Z,58.92
2019-03-23T09:25:54.961Z,64.70
2019-03-23T09:26:59.988Z,59.70
2019-03-23T09:28:04.970Z,65.22
2019-03-23T09:29:10.038Z,65.08
2019-03-23T09:30:15.402Z,56.95
2019-03-23T09:31:20.594Z,59.58
2019-03-23T09:32:25.589Z,64.03
2019-03-23T09:33:30.573Z,58.30
2019-03-23T09:34:35.611Z,62.03
2019-03-23T09:35:40.521Z,61.33
2019-03-23T09:36:45.617Z,59.80
2019-03-23T09:37:50.847Z,58.42
2019-03-23T09:38:55.793Z,52.23
2019-03-23T09:40:10.029Z,57.45
2019-03-23T09:41:07.598Z,60.00
2019-03-23T09:42:13.105Z,62.70
2019-03-23T09:43:18.292Z,60.48
2019-03-23T09:44:23.284Z,60.78
2019-03-23T09:45:28.248Z,58.33
2019-03-23T09:46:33.502Z,56.10
2019-03-23T09:47:38.725Z,59.67
2019-03-23T09:48:44.014Z,55.75
2019-03-23T09:49:49.165Z,61.50
2019-03-23T09:50:54.226Z,63.55
2019-03-23T09:51:59.332Z,51.73
2019-03-23T09:53:04.324Z,58.08
2019-03-23T09:54:09.327Z,56.45
2019-03-23T09:55:14.324Z,62.03
2019-03-23T09:56:19.984Z,57.80
2019-03-23T09:57:24.992Z,57.35
2019-03-23T09:58:30.175Z,59.80
2019-03-23T09:59:35.358Z,55.33
2019-03-23T10:00:40.682Z,57.48
2019-03-23T10:01:45.633Z,55.45
2019-03-23T10:02:50.977Z,56.02
2019-03-23T10:03:56.259Z,53.83
2019-03-23T10:05:01.389Z,55.78
2019-03-23T10:06:06.356Z,55.20
2019-03-23T10:07:12.929Z,51.37
2019-03-23T10:08:17.932Z,54.05
2019-03-23T10:09:22.953Z,53.50
2019-03-23T10:10:27.950Z,54.58
2019-03-23T10:11:32.932Z,54.05
2019-03-23T10:12:37.980Z,55.15
2019-03-23T10:13:43.032Z,50.25
2019-03-23T10:14:48.007Z,53.60
2019-03-23T10:15:52.932Z,57.15
2019-03-23T10:16:58.106Z,49.73
2019-03-23T10:18:03.234Z,48.58
2019-03-23T10:19:09.605Z,49.98
2019-03-23T10:20:15.124Z,49.15
2019-03-23T10:21:20.770Z,50.52
2019-03-23T10:22:25.710Z,49.60
2019-03-23T10:23:30.643Z,50.38
2019-03-23T10:24:35.563Z,50.00
2019-03-23T10:25:40.544Z,48.33
2019-03-23T10:26:45.829Z,41.95
2019-03-23T10:27:50.818Z,49.23
2019-03-23T10:28:55.805Z,52.35
2019-03-23T10:30:00.909Z,49.53
2019-03-23T10:31:06.017Z,46.88
2019-03-23T10:32:11.127Z,45.83
2019-03-23T10:33:16.519Z,48.60
2019-03-23T10:34:21.666Z,47.27
2019-03-23T10:35:26.615Z,49.33
2019-03-23T10:36:31.772Z,52.83
2019-03-23T10:37:36.860Z,45.28
2019-03-23T10:38:41.822Z,49.00
2019-03-23T10:39:47.355Z,47.70
2019-03-23T10:40:52.428Z,42.65
2019-03-23T10:41:57.400Z,49.70
2019-03-23T10:43:02.459Z,46.68
2019-03-23T10:44:07.421Z,47.40
2019-03-23T10:45:13.049Z,52.98
2019-03-23T10:46:20.834Z,53.45
2019-03-23T10:47:26.020Z,49.63
2019-03-23T10:48:31.141Z,44.38
2019-03-23T10:49:36.128Z,43.40
2019-03-23T10:50:41.546Z,47.78
2019-03-23T10:51:46.574Z,45.30
2019-03-23T10:52:51.493Z,47.62
2019-03-23T10:53:56.467Z,47.50
2019-03-23T10:55:01.717Z,52.73
2019-03-23T10:56:07.048Z,48.48
2019-03-23T10:57:12.154Z,45.67
2019-03-23T10:58:17.269Z,50.88
2019-03-23T10:59:22.567Z,50.30
2019-03-23T11:00:27.516Z,47.33
2019-03-23T11:01:32.729Z,47.05
2019-03-23T11:02:37.752Z,45.92
2019-03-23T11:03:42.859Z,47.17
2019-03-23T11:04:48.118Z,51.92
2019-03-23T11:05:53.134Z,46.50
2019-03-23T11:06:58.227Z,46.20
2019-03-23T11:08:03.522Z,44.25
2019-03-23T11:09:08.847Z,47.10
2019-03-23T11:10:16.508Z,52.17
2019-03-23T11:11:21.597Z,43.65
2019-03-23T11:12:26.544Z,45.38
2019-03-23T11:13:31.555Z,44.48
2019-03-23T11:14:36.537Z,44.20
2019-03-23T11:15:41.519Z,48.65
2019-03-23T11:16:46.848Z,47.00
2019-03-23T11:17:51.765Z,45.58
2019-03-23T11:18:56.887Z,43.90
2019-03-23T11:20:02.114Z,43.87
2019-03-23T11:21:07.321Z,41.77
2019-03-23T11:22:12.516Z,44.58
2019-03-23T11:23:17.731Z,48.00
2019-03-23T11:24:22.905Z,42.60
2019-03-23T11:25:27.913Z,47.67
2019-03-23T11:26:32.938Z,49.48
2019-03-23T11:27:38.061Z,43.05
2019-03-23T11:28:43.515Z,43.20
2019-03-23T11:29:48.599Z,42.60
2019-03-23T11:30:53.587Z,41.53
2019-03-23T11:31:58.595Z,42.90
2019-03-23T11:33:04.270Z,47.38
2019-03-23T11:34:17.551Z,44.75
2019-03-23T11:35:16.162Z,45.88
2019-03-23T11:36:21.369Z,42.70
2019-03-23T11:37:26.404Z,41.33
2019-03-23T11:38:31.516Z,44.58
2019-03-23T11:39:36.617Z,43.42
2019-03-23T11:40:51.807Z,42.60
2019-03-23T11:41:48.590Z,41.18
2019-03-23T11:42:53.754Z,43.87
2019-03-23T11:43:59.128Z,41.70
2019-03-23T11:45:04.566Z,43.00
2019-03-23T11:46:09.629Z,46.02
2019-03-23T11:47:15.078Z,43.15
2019-03-23T11:48:20.194Z,44.73
2019-03-23T11:49:25.249Z,39.73
2019-03-23T11:50:30.274Z,38.95
2019-03-23T11:51:35.320Z,42.20
2019-03-23T11:52:40.471Z,44.60
2019-03-23T11:53:45.385Z,39.63
2019-03-23T11:54:50.721Z,44.25
2019-03-23T11:55:56.248Z,42.88
2019-03-23T11:57:02.208Z,46.02
2019-03-23T11:58:07.881Z,42.93
2019-03-23T11:59:14.227Z,43.17
2019-03-23T12:00:19.725Z,42.40
2019-03-23T12:01:24.944Z,43.20
2019-03-23T12:02:30.087Z,44.55
2019-03-23T12:03:35.193Z,42.48
2019-03-23T12:04:40.475Z,43.98
2019-03-23T12:05:45.694Z,45.35
2019-03-23T12:06:51.147Z,48.40
2019-03-23T12:07:58.854Z,38.63
2019-03-23T12:09:05.663Z,41.53
2019-03-23T12:10:11.136Z,41.73
2019-03-23T12:11:18.449Z,45.23
2019-03-23T12:12:24.701Z,43.20
2019-03-23T12:13:30.586Z,43.75
2019-03-23T12:14:36.017Z,47.78
2019-03-23T12:15:41.434Z,43.92
2019-03-23T12:16:47.517Z,43.52
2019-03-23T12:17:52.708Z,44.60
2019-03-23T12:18:57.829Z,44.85
2019-03-23T12:20:03.162Z,44.30
2019-03-23T12:21:08.354Z,45.67
2019-03-23T12:22:13.718Z,40.23
2019-03-23T12:23:19.050Z,42.70
2019-03-23T12:24:24.518Z,40.65
2019-03-23T12:25:29.585Z,41.40
2019-03-23T12:26:36.497Z,41.65
2019-03-23T12:27:42.197Z,40.63
2019-03-23T12:28:49.668Z,40.95
2019-03-23T12:29:54.895Z,42.43
2019-03-23T12:31:00.073Z,42.88
2019-03-23T12:32:05.534Z,40.15
2019-03-23T12:33:10.946Z,42.73
2019-03-23T12:34:16.277Z,44.80
2019-03-23T12:35:21.527Z,39.60
2019-03-23T12:36:26.677Z,45.08
2019-03-23T12:37:31.800Z,43.58
2019-03-23T12:38:36.883Z,47.93
2019-03-23T12:39:41.774Z,47.73
2019-03-23T12:40:46.681Z,41.68
2019-03-23T12:41:51.756Z,48.50
2019-03-23T12:42:56.811Z,58.63
2019-03-23T12:44:01.718Z,40.90
2019-03-23T12:45:07.719Z,43.25
2019-03-23T12:46:12.731Z,44.50
2019-03-23T12:47:17.713Z,45.98
2019-03-23T12:48:22.892Z,39.58
2019-03-23T12:49:27.860Z,41.88
2019-03-23T12:50:32.986Z,43.48
2019-03-23T12:51:37.932Z,43.30
2019-03-23T12:52:43.038Z,42.33
2019-03-23T12:53:48.036Z,43.52
2019-03-23T12:54:52.964Z,38.67
2019-03-23T12:55:58.009Z,40.85
2019-03-23T12:57:03.012Z,41.05
2019-03-23T12:58:07.986Z,38.58
2019-03-23T12:59:13.215Z,36.33
2019-03-23T13:00:18.783Z,40.60
2019-03-23T13:01:23.730Z,40.98
2019-03-23T13:02:28.699Z,41.48
2019-03-23T13:03:33.760Z,45.98
2019-03-23T13:04:38.643Z,39.38
2019-03-23T13:05:43.624Z,41.60
2019-03-23T13:06:48.621Z,41.05
2019-03-23T13:07:53.522Z,41.48
2019-03-23T13:08:58.492Z,41.00
2019-03-23T13:10:03.420Z,41.48
2019-03-23T13:11:08.442Z,40.20
2019-03-23T13:12:13.574Z,39.88
2019-03-23T13:13:18.478Z,40.50
2019-03-23T13:14:24.307Z,40.92
2019-03-23T13:15:29.304Z,45.25
2019-03-23T13:16:34.291Z,46.77
2019-03-23T13:17:39.184Z,45.45
2019-03-23T13:18:44.212Z,39.58
2019-03-23T13:19:49.200Z,42.75
2019-03-23T13:20:54.158Z,40.30
2019-03-23T13:21:59.121Z,40.00
2019-03-23T13:23:04.050Z,40.52
2019-03-23T13:24:09.035Z,41.18
2019-03-23T13:25:14.058Z,41.77
2019-03-23T13:26:19.250Z,40.38
2019-03-23T13:27:24.310Z,39.80
2019-03-23T13:28:29.502Z,40.48
2019-03-23T13:29:34.640Z,41.15
2019-03-23T13:30:39.586Z,40.98
2019-03-23T13:31:44.467Z,43.65
2019-03-23T13:32:49.684Z,40.58
2019-03-23T13:33:54.731Z,37.80
2019-03-23T13:34:59.700Z,41.18
2019-03-23T13:36:04.773Z,40.85
2019-03-23T13:37:09.788Z,40.98
2019-03-23T13:38:14.802Z,37.83
2019-03-23T13:39:19.759Z,39.08
2019-03-23T13:40:25.268Z,36.50
2019-03-23T13:41:30.678Z,38.15
2019-03-23T13:42:35.552Z,38.95
2019-03-23T13:43:40.584Z,39.10
2019-03-23T13:44:45.569Z,38.35
2019-03-23T13:45:50.489Z,40.65
2019-03-23T13:46:55.673Z,39.38
2019-03-23T13:48:00.578Z,40.67
2019-03-23T13:49:05.591Z,41.40
2019-03-23T13:50:11.169Z,37.45
2019-03-23T13:51:16.182Z,39.55
2019-03-23T13:52:21.150Z,36.85
2019-03-23T13:53:26.264Z,39.73
2019-03-23T13:54:31.244Z,38.33
2019-03-23T13:55:36.413Z,36.10
2019-03-23T13:56:41.338Z,38.45
2019-03-23T13:57:46.320Z,39.45